Time;durP1;ratioP1;P1;durP2;ratioP2;P2;SDS_P1;SDS_P2;PMS_P1;PMS_P2;Temp;Humidity;BMP_temperature;BMP_pressure;BME280_temperature;BME280_humidity;BME280_pressure;Samples;Min_cycle;Max_cycle;Signal;HPM_P1;HPM_P2
2023/02/04 00:01:44;;;;;;;16.17;12.10;;;;;;;1.07;100.00;99765.78;1388115;89;22598;-77
2023/02/04 00:04:14;;;;;;;19.30;14.47;;;;;;;1.09;100.00;99760.45;1539806;89;21638;-78
2023/02/04 00:06:40;;;;;;;19.43;14.40;;;;;;;1.07;100.00;99762.35;1382604;89;21761;-79
2023/02/04 00:09:06;;;;;;;19.60;13.63;;;;;;;1.05;100.00;99757.70;1382433;89;21653;-76
2023/02/04 00:11:33;;;;;;;22.00;14.50;;;;;;;1.03;100.00;99760.40;1382999;89;22692;-78
2023/02/04 00:13:59;;;;;;;22.37;16.07;;;;;;;0.99;100.00;99762.03;1388208;89;22620;-78
2023/02/04 00:16:26;;;;;;;21.10;14.90;;;;;;;0.95;100.00;99756.64;1382558;89;22540;-81
2023/02/04 00:18:52;;;;;;;30.03;17.73;;;;;;;0.93;100.00;99766.35;1382688;89;21571;-80
2023/02/04 00:21:18;;;;;;;22.73;16.33;;;;;;;0.90;100.00;99774.73;1382954;89;21495;-81
2023/02/04 00:23:44;;;;;;;22.87;17.00;;;;;;;0.91;100.00;99766.44;1535575;89;22556;-80
2023/02/04 00:26:10;;;;;;;19.97;14.43;;;;;;;0.94;100.00;99764.92;1382786;89;21732;-81
2023/02/04 00:28:36;;;;;;;18.63;13.83;;;;;;;0.95;100.00;99774.88;1383174;89;21656;-80
2023/02/04 00:31:03;;;;;;;20.73;14.43;;;;;;;0.94;100.00;99778.43;1383066;89;21742;-80
2023/02/04 00:33:29;;;;;;;19.70;13.73;;;;;;;0.96;100.00;99781.78;1382519;89;21703;-78
2023/02/04 00:35:55;;;;;;;22.50;14.80;;;;;;;0.97;100.00;99782.13;1388297;89;22685;-79
2023/02/04 00:38:21;;;;;;;21.47;15.47;;;;;;;0.93;100.00;99770.27;1383134;89;21506;-80
2023/02/04 00:40:48;;;;;;;22.60;15.60;;;;;;;0.89;100.00;99765.25;1382676;89;21814;-81
2023/02/04 00:43:14;;;;;;;21.73;14.60;;;;;;;0.86;100.00;99764.16;1382951;89;22475;-81
2023/02/04 00:45:40;;;;;;;21.30;15.40;;;;;;;0.84;100.00;99767.33;1383333;89;22574;-80
2023/02/04 00:48:06;;;;;;;22.20;14.87;;;;;;;0.81;100.00;99774.52;1388653;89;21738;-81
2023/02/04 00:50:35;;;;;;;20.53;14.53;;;;;;;0.76;100.00;99772.67;1538177;89;21855;-80
2023/02/04 00:53:00;;;;;;;21.50;16.43;;;;;;;0.77;100.00;99773.86;1535640;89;22675;-80
2023/02/04 00:55:27;;;;;;;21.20;13.07;;;;;;;0.76;100.00;99768.30;1363439;91;21655;-79
2023/02/04 00:57:54;;;;;;;20.90;14.03;;;;;;;0.82;100.00;99764.45;1381503;89;21726;-79
2023/02/04 01:00:20;;;;;;;22.93;14.27;;;;;;;0.81;100.00;99763.63;1387691;89;22563;-81
2023/02/04 01:02:46;;;;;;;22.87;15.13;;;;;;;0.79;100.00;99751.16;1381872;89;21912;-81
2023/02/04 01:05:12;;;;;;;27.00;17.40;;;;;;;0.75;100.00;99753.61;1511462;89;21632;-81
2023/02/04 01:07:38;;;;;;;27.43;17.83;;;;;;;0.70;100.00;99751.77;1363544;91;22147;-78
2023/02/04 01:10:05;;;;;;;24.67;16.33;;;;;;;0.62;100.00;99770.97;1382015;89;22416;-81
2023/02/04 01:12:31;;;;;;;27.60;18.07;;;;;;;0.58;100.00;99763.83;1534941;89;22523;-81
2023/02/04 01:14:57;;;;;;;23.90;16.63;;;;;;;0.57;100.00;99771.73;1381748;89;21407;-81
2023/02/04 01:17:24;;;;;;;26.37;15.47;;;;;;;0.58;100.00;99765.13;1381877;89;21480;-80
2023/02/04 01:19:51;;;;;;;24.70;15.27;;;;;;;0.59;100.00;99753.77;1380868;89;22213;-80
2023/02/04 01:22:17;;;;;;;32.00;20.53;;;;;;;0.61;100.00;99751.08;1387493;88;21804;-80
2023/02/04 01:24:43;;;;;;;34.57;20.63;;;;;;;0.64;100.00;99757.39;1538192;89;21644;-79
2023/02/04 01:27:10;;;;;;;27.07;18.50;;;;;;;0.61;100.00;99749.78;1381831;89;21551;-81
2023/02/04 01:29:36;;;;;;;30.83;17.97;;;;;;;0.61;100.00;99758.42;1381310;89;21788;-80
2023/02/04 01:32:02;;;;;;;27.57;16.67;;;;;;;0.58;100.00;99739.56;1363196;91;21602;-79
2023/02/04 01:34:30;;;;;;;25.03;16.67;;;;;;;0.53;100.00;99752.88;1381674;89;21747;-79
2023/02/04 01:36:56;;;;;;;27.50;18.57;;;;;;;0.50;100.00;99745.27;1380166;89;22357;-80
2023/02/04 01:39:23;;;;;;;25.87;17.07;;;;;;;0.47;100.00;99745.47;1381716;89;22022;-81
2023/02/04 01:41:49;;;;;;;29.90;18.23;;;;;;;0.44;100.00;99745.20;1381776;89;21801;-80
2023/02/04 01:44:15;;;;;;;30.30;18.90;;;;;;;0.41;100.00;99732.38;1387477;89;21567;-81
2023/02/04 01:46:42;;;;;;;35.47;21.93;;;;;;;0.40;100.00;99732.03;1538190;89;21578;-80
2023/02/04 01:49:10;;;;;;;37.35;22.13;;;;;;;0.36;100.00;99733.14;1387295;89;21632;-79
2023/02/04 01:51:36;;;;;;;30.83;19.43;;;;;;;0.32;100.00;99730.38;1380005;89;21466;-78
2023/02/04 01:54:03;;;;;;;32.73;19.40;;;;;;;0.28;100.00;99730.20;1381749;89;22541;-80
2023/02/04 01:56:30;;;;;;;39.75;22.00;;;;;;;0.26;100.00;99731.22;1387231;89;23076;-80
2023/02/04 01:58:57;;;;;;;35.93;21.87;;;;;;;0.21;100.00;99738.05;1347840;92;21362;-80
2023/02/04 02:01:41;;;;;;;36.15;22.07;;;;;;;0.19;100.00;99742.50;1380093;89;21604;-79
2023/02/04 02:04:14;;;;;;;51.50;25.87;;;;;;;0.17;100.00;99753.03;1538203;89;21355;-79
2023/02/04 02:06:47;;;;;;;54.50;26.87;;;;;;;0.13;100.00;99748.94;1386107;89;21452;-79
2023/02/04 02:09:14;;;;;;;58.63;26.75;;;;;;;0.12;100.00;99743.84;1380928;91;22187;-79
2023/02/04 02:11:41;;;;;;;49.25;25.95;;;;;;;0.11;100.00;99752.09;1362381;91;22205;-80
2023/02/04 02:14:07;;;;;;;42.43;24.92;;;;;;;0.08;100.00;99751.45;1381994;89;21370;-78
2023/02/04 02:16:33;;;;;;;56.10;35.67;;;;;;;0.10;100.00;99745.23;1381355;89;21347;-80
2023/02/04 02:19:00;;;;;;;38.33;24.47;;;;;;;0.11;100.00;99742.16;1387672;89;21738;-77
2023/02/04 02:22:02;;;;;;;31.37;18.70;;;;;;;0.12;100.00;99739.47;1381957;89;22216;-79
2023/02/04 02:24:32;;;;;;;29.50;19.63;;;;;;;0.13;100.00;99731.19;1535016;89;22157;-79
2023/02/04 02:27:09;;;;;;;33.17;18.47;;;;;;;0.06;100.00;99720.79;1378043;89;21446;-78
2023/02/04 02:29:41;;;;;;;30.90;17.70;;;;;;;0.04;100.00;99728.71;1532567;89;22014;-78
2023/02/04 02:32:09;;;;;;;29.67;17.77;;;;;;;-0.02;100.00;99752.05;1380065;89;21602;-78
2023/02/04 02:34:38;;;;;;;27.47;16.63;;;;;;;-0.03;100.00;99759.49;1361428;91;22724;-79
2023/02/04 02:37:07;;;;;;;30.10;17.83;;;;;;;-0.06;100.00;99750.58;1378677;89;21609;-77
2023/02/04 02:39:36;;;;;;;27.37;17.33;;;;;;;-0.06;100.00;99733.67;1378007;89;21482;-79
2023/02/04 02:42:03;;;;;;;31.83;18.27;;;;;;;-0.07;100.00;99742.39;1378992;89;21886;-77
2023/02/04 02:44:30;;;;;;;28.50;18.00;;;;;;;-0.07;100.00;99733.75;1381020;89;21799;-79
2023/02/04 02:46:57;;;;;;;33.77;19.67;;;;;;;-0.08;100.00;99738.60;1380647;89;21648;-79
2023/02/04 02:49:23;;;;;;;44.90;19.37;;;;;;;-0.09;100.00;99754.65;1387134;89;22279;-80
2023/02/04 02:51:50;;;;;;;29.40;18.20;;;;;;;-0.08;100.00;99753.73;1387217;89;21556;-80
2023/02/04 02:54:29;;;;;;;24.30;15.37;;;;;;;-0.09;100.00;99741.64;1538148;89;22302;-80
2023/02/04 02:56:57;;;;;;;26.83;17.77;;;;;;;-0.09;100.00;99749.45;1516370;89;21575;-80
2023/02/04 02:59:25;;;;;;;31.03;18.07;;;;;;;-0.16;100.00;99758.58;1380261;89;21535;-78
2023/02/04 03:02:01;;;;;;;22.93;15.87;;;;;;;-0.12;100.00;99756.14;1512789;89;22915;-79
2023/02/04 03:04:31;;;;;;;26.97;14.93;;;;;;;-0.10;100.00;99763.39;1538136;89;21507;-78
2023/02/04 03:06:57;;;;;;;34.67;19.33;;;;;;;-0.10;100.00;99769.06;1377846;89;21676;-80
2023/02/04 03:09:26;;;;;;;33.80;19.50;;;;;;;-0.12;100.00;99761.34;1381197;89;21769;-81
2023/02/04 03:11:52;;;;;;;28.47;17.83;;;;;;;-0.15;100.00;99756.34;1379248;89;21750;-77
2023/02/04 03:14:19;;;;;;;29.87;18.13;;;;;;;-0.20;100.00;99753.21;1386780;89;21712;-77
2023/02/04 03:16:47;;;;;;;25.47;18.10;;;;;;;-0.21;100.00;99750.22;1381098;89;22232;-79
2023/02/04 03:19:13;;;;;;;29.27;19.03;;;;;;;-0.22;100.00;99745.96;1380842;89;21604;-81
2023/02/04 03:21:40;;;;;;;26.97;15.73;;;;;;;-0.21;100.00;99747.63;1381217;89;21813;-81
2023/02/04 03:24:07;;;;;;;25.55;17.32;;;;;;;-0.18;100.00;99739.63;1380957;89;21549;-81
2023/02/04 03:26:33;;;;;;;22.47;14.07;;;;;;;-0.13;100.00;99721.97;1387462;89;21614;-79
2023/02/04 03:28:59;;;;;;;23.83;15.70;;;;;;;-0.09;100.00;99726.03;1381869;89;21787;-77
2023/02/04 03:31:26;;;;;;;26.47;17.87;;;;;;;-0.11;100.00;99731.82;1381485;89;21643;-80
2023/02/04 03:33:52;;;;;;;30.80;18.55;;;;;;;-0.18;100.00;99729.69;1381484;89;21585;-80
2023/02/04 03:36:18;;;;;;;27.57;20.20;;;;;;;-0.22;100.00;99723.86;1387620;89;22302;-80
2023/02/04 03:38:45;;;;;;;25.02;16.45;;;;;;;-0.25;100.00;99714.95;1538158;89;22811;-81
2023/02/04 03:41:11;;;;;;;25.10;16.77;;;;;;;-0.24;100.00;99721.80;1381659;89;22421;-79
2023/02/04 03:43:37;;;;;;;23.77;15.50;;;;;;;-0.24;100.00;99721.80;1381763;89;21666;-80
2023/02/04 03:46:04;;;;;;;24.67;16.15;;;;;;;-0.25;100.00;99725.34;1382036;89;21568;-78
2023/02/04 03:48:30;;;;;;;23.47;14.30;;;;;;;-0.26;100.00;99726.27;1381087;89;22279;-79
2023/02/04 03:50:57;;;;;;;27.58;15.93;;;;;;;-0.26;100.00;99721.06;1533359;89;21855;-81
2023/02/04 03:53:23;;;;;;;24.73;16.43;;;;;;;-0.28;100.00;99721.64;1387330;89;21576;-80
2023/02/04 03:55:49;;;;;;;27.22;16.55;;;;;;;-0.31;100.00;99710.13;1382143;89;21532;-80
2023/02/04 03:58:16;;;;;;;22.35;16.20;;;;;;;-0.35;100.00;99706.04;1382095;89;22357;-81
2023/02/04 04:00:42;;;;;;;22.82;15.25;;;;;;;-0.35;100.00;99708.64;1380941;89;21437;-81
2023/02/04 04:03:08;;;;;;;23.07;16.40;;;;;;;-0.34;100.00;99707.73;1381505;89;21354;-80
2023/02/04 04:05:35;;;;;;;20.53;13.43;;;;;;;-0.32;100.00;99705.84;1387545;89;21639;-81
2023/02/04 04:08:01;;;;;;;23.38;11.75;;;;;;;-0.26;100.00;99706.75;1538404;89;23054;-81
2023/02/04 04:10:30;;;;;;;19.77;14.13;;;;;;;-0.27;100.00;99697.30;1382218;89;21497;-78
2023/02/04 04:12:56;;;;;;;25.83;14.40;;;;;;;-0.27;100.00;99690.33;1378924;89;21871;-80
2023/02/04 04:15:23;;;;;;;24.03;15.73;;;;;;;-0.28;100.00;99690.44;1381713;89;22155;-80
2023/02/04 04:17:49;;;;;;;19.73;12.95;;;;;;;-0.29;100.00;99686.14;1381490;89;22089;-81
2023/02/04 04:20:16;;;;;;;22.03;14.43;;;;;;;-0.27;100.00;99681.69;1387381;89;21473;-79
2023/02/04 04:22:42;;;;;;;17.47;11.23;;;;;;;-0.24;100.00;99672.39;1381476;89;21741;-80
2023/02/04 04:25:08;;;;;;;14.90;10.43;;;;;;;-0.25;100.00;99675.94;1381989;89;22110;-79
2023/02/04 04:27:34;;;;;;;18.40;12.40;;;;;;;-0.23;100.00;99670.19;1381140;89;21813;-81
2023/02/04 04:30:01;;;;;;;23.47;14.23;;;;;;;-0.23;100.00;99672.78;1498481;89;22207;-81
2023/02/04 04:32:27;;;;;;;21.25;13.05;;;;;;;-0.25;100.00;99681.97;1455536;89;21642;-79
2023/02/04 04:34:54;;;;;;;17.85;11.88;;;;;;;-0.28;100.00;99674.36;1459370;89;22448;-83
2023/02/04 04:37:20;;;;;;;19.15;12.78;;;;;;;-0.32;100.00;99673.34;1428908;89;22398;-81
2023/02/04 04:39:46;;;;;;;22.87;12.57;;;;;;;-0.33;100.00;99680.78;1454566;89;21472;-81
2023/02/04 04:42:12;;;;;;;17.53;12.37;;;;;;;-0.35;100.00;99678.73;1455531;89;21752;-81
2023/02/04 04:44:39;;;;;;;19.50;13.23;;;;;;;-0.30;100.00;99680.59;1452646;89;21667;-80
2023/02/04 04:47:05;;;;;;;18.57;11.87;;;;;;;-0.24;100.00;99680.20;1455099;89;21776;-78
2023/02/04 04:49:33;;;;;;;17.70;12.10;;;;;;;-0.22;100.00;99682.24;1451076;89;21771;-77
2023/02/04 04:51:59;;;;;;;18.40;12.47;;;;;;;-0.23;100.00;99685.79;1453517;89;22725;-78
2023/02/04 04:54:25;;;;;;;20.50;14.27;;;;;;;-0.25;100.00;99675.94;1454361;89;21563;-77
2023/02/04 04:56:52;;;;;;;19.70;13.40;;;;;;;-0.27;100.00;99679.09;1455778;89;21645;-79
2023/02/04 04:59:18;;;;;;;17.73;12.90;;;;;;;-0.24;100.00;99678.90;1457963;89;22430;-79
2023/02/04 05:01:44;;;;;;;17.13;11.80;;;;;;;-0.18;100.00;99690.20;1445191;89;21608;-80
2023/02/04 05:04:10;;;;;;;19.97;14.13;;;;;;;-0.15;100.00;99686.58;1454424;89;21540;-75
2023/02/04 05:06:36;;;;;;;23.03;16.03;;;;;;;-0.10;100.00;99687.95;1454738;89;21697;-78
2023/02/04 05:09:03;;;;;;;21.27;14.57;;;;;;;-0.03;100.00;99686.65;1453684;89;21944;-78
2023/02/04 05:11:29;;;;;;;26.10;16.10;;;;;;;0.03;100.00;99689.33;1438246;89;23020;-79
2023/02/04 05:13:56;;;;;;;20.05;13.65;;;;;;;0.00;100.00;99681.72;1454138;89;21795;-79
2023/02/04 05:16:22;;;;;;;22.37;14.37;;;;;;;-0.03;100.00;99680.59;1455239;89;22147;-77
2023/02/04 05:18:48;;;;;;;18.83;13.90;;;;;;;-0.03;100.00;99673.64;1452425;89;21588;-86
2023/02/04 05:21:14;;;;;;;19.97;13.47;;;;;;;-0.05;100.00;99679.41;1453355;89;22191;-86
2023/02/04 05:23:42;;;;;;;22.13;15.13;;;;;;;-0.06;100.00;99675.14;1453568;89;22658;-86
2023/02/04 05:26:09;;;;;;;20.37;13.63;;;;;;;-0.04;100.00;99678.93;1456627;89;22644;-84
2023/02/04 05:28:35;;;;;;;20.10;14.37;;;;;;;-0.01;100.00;99676.95;1455189;89;21757;-86
2023/02/04 05:31:01;;;;;;;20.88;14.25;;;;;;;0.00;100.00;99683.02;1459274;89;21693;-86
2023/02/04 05:33:27;;;;;;;17.33;12.53;;;;;;;-0.02;100.00;99683.11;1455108;89;21979;-86
2023/02/04 05:35:53;;;;;;;19.20;12.63;;;;;;;-0.05;100.00;99684.60;1452196;89;21850;-82
2023/02/04 05:38:20;;;;;;;17.30;11.93;;;;;;;-0.07;100.00;99687.76;1437182;89;22114;-80
2023/02/04 05:40:46;;;;;;;17.83;12.53;;;;;;;-0.10;100.00;99682.75;1457487;89;21770;-80
2023/02/04 05:43:12;;;;;;;18.97;12.20;;;;;;;-0.13;100.00;99689.45;1454582;89;21785;-80
2023/02/04 05:45:38;;;;;;;22.93;15.03;;;;;;;-0.14;100.00;99694.30;1456490;89;22037;-79
2023/02/04 05:48:05;;;;;;;19.27;13.67;;;;;;;-0.10;100.00;99700.97;1453497;89;22048;-81
2023/02/04 05:50:32;;;;;;;18.20;12.23;;;;;;;-0.10;100.00;99706.17;1458639;89;22560;-81
2023/02/04 05:52:58;;;;;;;21.70;12.80;;;;;;;-0.07;100.00;99705.14;1452499;89;21709;-80
2023/02/04 05:55:24;;;;;;;20.43;14.13;;;;;;;-0.06;100.00;99702.45;1436640;89;21909;-80
2023/02/04 05:57:50;;;;;;;17.77;12.87;;;;;;;-0.06;100.00;99712.86;1454849;89;21823;-81
2023/02/04 06:00:17;;;;;;;18.07;12.97;;;;;;;-0.06;100.00;99716.77;1455450;89;23225;-84
2023/02/04 06:02:46;;;;;;;20.87;14.13;;;;;;;-0.06;100.00;99723.27;1453767;89;22683;-84
2023/02/04 06:05:12;;;;;;;20.40;14.13;;;;;;;-0.06;100.00;99733.67;1455124;89;21640;-83
2023/02/04 06:07:39;;;;;;;22.53;15.03;;;;;;;-0.07;100.00;99733.28;1451983;89;22610;-84
2023/02/04 06:10:05;;;;;;;19.93;15.17;;;;;;;-0.10;100.00;99739.98;1453564;89;22058;-84
2023/02/04 06:12:31;;;;;;;18.60;14.30;;;;;;;-0.11;100.00;99740.92;1454051;89;21681;-84
2023/02/04 06:14:57;;;;;;;20.63;14.13;;;;;;;-0.08;100.00;99748.53;1458744;89;21758;-85
2023/02/04 06:17:23;;;;;;;24.93;15.43;;;;;;;-0.06;100.00;99753.62;1453409;89;21871;-85
2023/02/04 06:19:50;;;;;;;20.90;14.47;;;;;;;-0.04;100.00;99747.40;1458129;89;21823;-83
2023/02/04 06:22:16;;;;;;;19.20;14.23;;;;;;;0.02;100.00;99746.65;1455829;89;21607;-84
2023/02/04 06:24:42;;;;;;;23.43;16.07;;;;;;;0.07;100.00;99748.03;1451611;89;22451;-82
2023/02/04 06:27:08;;;;;;;25.03;16.80;;;;;;;0.12;100.00;99752.95;1451714;89;21678;-83
2023/02/04 06:29:35;;;;;;;24.90;16.17;;;;;;;0.12;100.00;99747.75;1455293;89;21684;-82
2023/02/04 06:32:01;;;;;;;23.17;15.40;;;;;;;0.12;100.00;99759.45;1451844;89;22445;-83
2023/02/04 06:34:27;;;;;;;25.20;17.00;;;;;;;0.13;100.00;99753.31;1456596;89;21627;-84
2023/02/04 06:36:53;;;;;;;28.67;18.77;;;;;;;0.17;100.00;99749.56;1458449;89;21722;-83
2023/02/04 06:39:20;;;;;;;25.17;16.97;;;;;;;0.21;100.00;99756.27;1460079;89;22638;-83
2023/02/04 06:41:46;;;;;;;23.17;15.93;;;;;;;0.24;100.00;99754.77;1454969;89;21733;-84
2023/02/04 06:44:12;;;;;;;22.60;14.70;;;;;;;0.28;100.00;99749.72;1430942;89;21660;-83
2023/02/04 06:46:38;;;;;;;27.63;14.90;;;;;;;0.33;100.00;99750.27;1455983;89;22564;-84
2023/02/04 06:49:04;;;;;;;25.53;16.90;;;;;;;0.39;100.00;99754.23;1457503;89;21761;-84
2023/02/04 06:51:30;;;;;;;34.67;21.10;;;;;;;0.39;100.00;99754.23;1451771;89;22015;-83
2023/02/04 06:53:58;;;;;;;34.93;23.20;;;;;;;0.37;100.00;99753.02;1460110;89;21666;-84
2023/02/04 06:56:25;;;;;;;61.90;35.87;;;;;;;0.35;100.00;99751.48;1454988;89;21570;-82
2023/02/04 06:58:52;;;;;;;27.07;17.70;;;;;;;0.35;100.00;99756.21;1441108;89;22546;-84
2023/02/04 07:01:18;;;;;;;73.93;30.30;;;;;;;0.38;100.00;99759.91;1455199;89;21881;-83
2023/02/04 07:03:44;;;;;;;160.00;60.23;;;;;;;0.40;100.00;99751.98;1460737;89;21926;-84
2023/02/04 07:06:10;;;;;;;41.50;22.63;;;;;;;0.43;100.00;99755.70;1451473;89;21695;-81
2023/02/04 07:08:37;;;;;;;65.73;31.23;;;;;;;0.42;100.00;99763.98;1439297;89;22398;-83
2023/02/04 07:11:03;;;;;;;28.57;17.17;;;;;;;0.41;100.00;99761.49;1453805;89;21865;-83
2023/02/04 07:13:29;;;;;;;32.50;16.67;;;;;;;0.40;100.00;99763.70;1454084;89;21516;-84
2023/02/04 07:15:55;;;;;;;23.57;14.67;;;;;;;0.43;100.00;99770.02;1453982;89;22416;-84
2023/02/04 07:18:22;;;;;;;20.07;13.57;;;;;;;0.46;100.00;99773.72;1457112;89;22646;-84
2023/02/04 07:20:48;;;;;;;22.27;13.53;;;;;;;0.41;100.00;99772.73;1537117;89;21794;-84
2023/02/04 07:23:14;;;;;;;19.70;13.57;;;;;;;0.45;100.00;99779.87;1383067;89;21662;-84
2023/02/04 07:25:40;;;;;;;25.40;15.97;;;;;;;0.45;100.00;99779.87;1382812;89;22027;-84
2023/02/04 07:28:06;;;;;;;22.80;14.23;;;;;;;0.47;100.00;99788.90;1368607;91;21786;-82
2023/02/04 07:30:33;;;;;;;29.70;18.20;;;;;;;0.50;100.00;99789.53;1388830;89;21663;-84
2023/02/04 07:33:01;;;;;;;29.10;16.83;;;;;;;0.58;100.00;99798.16;1380617;89;21782;-83
2023/02/04 07:35:27;;;;;;;28.17;17.40;;;;;;;0.63;100.00;99801.28;1383358;89;21620;-83
2023/02/04 07:37:53;;;;;;;29.70;18.03;;;;;;;0.65;100.00;99804.63;1382785;89;21589;-83
2023/02/04 07:40:20;;;;;;;32.17;20.97;;;;;;;0.71;100.00;99815.94;1368439;91;22482;-82
2023/02/04 07:42:48;;;;;;;27.90;19.50;;;;;;;0.76;100.00;99820.39;1379555;89;21518;-80
2023/02/04 07:45:15;;;;;;;31.87;21.90;;;;;;;0.76;100.00;99832.59;1388658;89;21706;-83
2023/02/04 07:47:41;;;;;;;32.13;19.87;;;;;;;0.76;100.00;99832.59;1383943;89;21616;-82
2023/02/04 07:50:08;;;;;;;38.53;20.67;;;;;;;0.72;100.00;99830.66;1368364;91;21732;-83
2023/02/04 07:52:34;;;;;;;29.70;19.87;;;;;;;0.76;100.00;99845.61;1387394;89;21743;-83
2023/02/04 07:55:01;;;;;;;39.00;24.30;;;;;;;0.76;100.00;99851.65;1381906;89;21639;-81
2023/02/04 07:57:29;;;;;;;74.00;25.73;;;;;;;0.74;100.00;99857.89;1511452;89;21732;-83
2023/02/04 07:59:55;;;;;;;36.10;20.03;;;;;;;0.75;100.00;99866.92;1385082;89;21727;-81
2023/02/04 08:02:21;;;;;;;30.90;18.93;;;;;;;0.77;100.00;99870.72;1382152;89;21615;-82
2023/02/04 08:04:47;;;;;;;25.40;15.00;;;;;;;0.80;100.00;99866.61;1381808;89;21460;-82
2023/02/04 08:07:14;;;;;;;25.20;17.67;;;;;;;0.79;100.00;99866.25;1382041;89;21599;-82
2023/02/04 08:09:40;;;;;;;39.30;25.03;;;;;;;0.84;100.00;99861.11;1381486;89;21754;-74
2023/02/04 08:12:06;;;;;;;37.37;23.47;;;;;;;0.92;100.00;99865.80;1381718;89;22333;-75
2023/02/04 08:14:32;;;;;;;36.67;23.07;;;;;;;1.00;100.00;99867.45;1381818;89;21682;-86
2023/02/04 08:17:05;;;;;;;29.60;19.50;;;;;;;1.10;100.00;99870.30;1384889;89;21601;-86
2023/02/04 08:19:31;;;;;;;27.47;14.63;;;;;;;1.19;100.00;99881.90;1382234;89;21766;-88
2023/02/04 08:21:57;;;;;;;27.23;18.53;;;;;;;1.05;100.00;99894.05;1382281;89;21572;-85
2023/02/04 08:24:24;;;;;;;26.27;18.50;;;;;;;0.92;100.00;99906.66;1401142;89;21824;-88
2023/02/04 08:26:50;;;;;;;48.37;33.60;;;;;;;0.94;100.00;99908.24;1454804;89;22296;-85
2023/02/04 08:29:16;;;;;;;31.67;19.13;;;;;;;0.95;100.00;99909.93;1447457;89;22497;-86
2023/02/04 08:31:42;;;;;;;136.67;56.40;;;;;;;0.80;100.00;99910.89;1455562;89;21723;-88
2023/02/04 08:34:15;;;;;;;38.70;25.37;;;;;;;0.78;100.00;99914.09;1435141;89;21756;-86
2023/02/04 08:36:43;;;;;;;103.93;55.93;;;;;;;0.89;100.00;99917.67;1455022;89;21743;-86
2023/02/04 08:39:11;;;;;;;36.43;23.60;;;;;;;0.98;100.00;99926.67;1455489;89;21627;-86
2023/02/04 08:41:38;;;;;;;28.97;18.23;;;;;;;1.12;100.00;99930.97;1449617;89;22711;-88
2023/02/04 08:44:04;;;;;;;34.27;21.50;;;;;;;1.18;100.00;99944.07;1454041;89;21667;-88
2023/02/04 08:46:31;;;;;;;33.50;19.57;;;;;;;1.13;100.00;99946.99;1533936;89;21738;-86
2023/02/04 08:48:57;;;;;;;51.40;26.10;;;;;;;1.04;100.00;99965.84;1515884;89;21653;-87
2023/02/04 08:51:23;;;;;;;95.03;43.47;;;;;;;0.88;100.00;99974.61;1382197;89;21557;-87
2023/02/04 08:53:50;;;;;;;70.93;36.70;;;;;;;0.69;100.00;99983.20;1494707;89;22711;-85
2023/02/04 08:56:19;;;;;;;81.17;36.93;;;;;;;0.63;100.00;99987.05;1457369;89;21747;-87
2023/02/04 08:58:51;;;;;;;67.73;31.47;;;;;;;0.48;100.00;99989.75;1453859;89;21754;-88
2023/02/04 09:01:18;;;;;;;44.33;26.23;;;;;;;0.46;100.00;99989.83;1455448;89;21743;-87
2023/02/04 09:03:45;;;;;;;36.50;19.77;;;;;;;0.50;100.00;99997.01;1462086;89;21732;-87
2023/02/04 09:06:12;;;;;;;22.10;12.57;;;;;;;0.52;100.00;100010.75;1457252;89;21752;-85
2023/02/04 09:08:38;;;;;;;20.37;11.03;;;;;;;0.56;100.00;100008.34;1455581;89;21645;-90
2023/02/04 09:11:04;;;;;;;18.70;11.27;;;;;;;0.45;100.00;100013.73;1458284;89;21685;-89
2023/02/04 09:13:32;;;;;;;17.43;10.57;;;;;;;0.54;100.00;100008.42;1457237;89;22229;-89
2023/02/04 09:15:58;;;;;;;19.93;11.33;;;;;;;0.56;100.00;100018.77;1455842;89;21687;-89
2023/02/04 09:18:25;;;;;;;11.10;6.97;;;;;;;0.61;100.00;100021.93;1457394;89;22289;-88
2023/02/04 09:21:06;;;;;;;8.37;5.53;;;;;;;0.50;100.00;100020.44;1455113;89;22239;-87
2023/02/04 09:23:32;;;;;;;11.97;6.60;;;;;;;0.55;99.61;100033.56;1455587;89;21717;-90
2023/02/04 09:26:00;;;;;;;12.23;6.00;;;;;;;0.76;99.86;100040.98;1381255;89;21761;-87
2023/02/04 09:28:26;;;;;;;6.27;4.20;;;;;;;0.74;98.95;100048.88;1539907;89;21645;-87
2023/02/04 09:30:52;;;;;;;7.50;4.00;;;;;;;0.71;98.59;100058.66;1383029;89;21579;-87
2023/02/04 09:33:19;;;;;;;15.40;3.83;;;;;;;0.67;98.57;100059.31;1447852;89;22613;-87
2023/02/04 09:35:45;;;;;;;9.17;4.20;;;;;;;0.66;97.13;100053.28;1458458;89;21625;-84
2023/02/04 09:38:11;;;;;;;3.80;2.83;;;;;;;0.75;96.50;100075.32;1455382;89;21739;-88
2023/02/04 09:40:43;;;;;;;3.30;2.33;;;;;;;0.77;96.15;100077.81;1460315;89;21563;-88
2023/02/04 09:43:17;;;;;;;10.43;3.70;;;;;;;0.81;93.03;100080.63;1461535;89;22742;-85
2023/02/04 09:45:44;;;;;;;10.60;4.67;;;;;;;0.83;91.70;100084.78;1451517;89;21751;-87
2023/02/04 09:48:13;;;;;;;8.13;4.07;;;;;;;0.92;91.56;100089.89;1453881;89;22595;-89
2023/02/04 09:50:39;;;;;;;4.60;2.67;;;;;;;0.93;90.24;100093.36;1457425;89;22503;-87
2023/02/04 09:53:06;;;;;;;11.77;5.13;;;;;;;0.83;88.76;100089.99;1442856;89;21893;-88
2023/02/04 09:55:37;;;;;;;9.97;4.57;;;;;;;0.92;88.11;100083.38;1463325;89;21860;-87
2023/02/04 09:58:16;;;;;;;5.35;2.35;;;;;;;1.05;86.56;100091.30;1449340;89;21861;-87
2023/02/04 10:00:44;;;;;;;4.23;2.10;;;;;;;1.04;84.30;100111.31;1465021;89;21457;-84
2023/02/04 10:03:17;;;;;;;3.93;2.43;;;;;;;0.96;82.83;100098.38;1465713;89;21744;-87
2023/02/04 10:05:45;;;;;;;13.23;5.13;;;;;;;1.05;81.93;100117.36;1465220;89;21756;-87
2023/02/04 10:08:16;;;;;;;4.10;2.13;;;;;;;1.15;81.62;100124.96;1468000;89;21808;-84
2023/02/04 10:10:44;;;;;;;7.20;3.87;;;;;;;1.00;80.08;100128.52;1450958;89;21947;-85
2023/02/04 10:26:03;;;;;;;8.33;4.23;;;;;;;1.75;75.58;100175.52;1491136;86;28507;-90
2023/02/04 10:28:39;;;;;;;4.60;2.40;;;;;;;1.66;76.63;100188.31;1463369;89;22471;-90
2023/02/04 10:31:07;;;;;;;7.13;3.60;;;;;;;1.11;75.95;100203.82;1485937;87;21450;-88
2023/02/04 10:33:36;;;;;;;3.03;1.97;;;;;;;1.11;75.95;100203.82;1475784;87;22403;-87
2023/02/04 10:36:04;;;;;;;2.50;1.80;;;;;;;1.29;77.31;100216.20;1462242;88;23135;-89
2023/02/04 10:38:31;;;;;;;6.63;3.40;;;;;;;1.39;77.68;100213.05;1463365;89;22234;-86
2023/02/04 10:41:05;;;;;;;2.53;1.80;;;;;;;1.34;77.23;100225.05;1458907;88;22316;-89
2023/02/04 10:43:32;;;;;;;2.97;1.67;;;;;;;1.10;76.47;100209.14;1459108;89;23312;-87
2023/02/04 10:46:03;;;;;;;2.83;1.87;;;;;;;1.10;76.47;100209.14;1463752;89;22308;-87
2023/02/04 10:48:31;;;;;;;2.97;1.83;;;;;;;1.08;77.53;100237.06;1462792;89;22188;-88
2023/02/04 10:50:58;;;;;;;3.13;1.87;;;;;;;0.90;77.68;100191.62;1446407;89;22472;-88
2023/02/04 10:56:20;;;;;;;3.20;1.87;;;;;;;0.89;77.86;100250.33;1442995;88;21891;-89
2023/02/04 10:58:47;;;;;;;2.20;1.67;;;;;;;0.88;78.21;100269.51;1436743;90;21851;-86
2023/02/04 11:01:15;;;;;;;2.50;1.43;;;;;;;0.86;79.32;100273.52;1441993;90;22569;-89
2023/02/04 11:03:43;;;;;;;2.73;1.87;;;;;;;0.90;78.11;100278.92;1441567;90;21870;-89
2023/02/04 11:06:23;;;;;;;2.90;1.50;;;;;;;0.90;78.11;100278.92;1451158;90;22048;-88
2023/02/04 11:08:52;;;;;;;4.75;2.00;;;;;;;1.07;77.49;100282.31;1447692;90;22701;-88
2023/02/04 11:11:24;;;;;;;2.57;1.37;;;;;;;1.16;75.44;100292.66;1445639;90;21501;-88
2023/02/04 11:13:56;;;;;;;4.43;2.17;;;;;;;1.16;75.44;100292.66;1440939;90;21924;-89
2023/02/04 11:16:26;;;;;;;3.33;2.13;;;;;;;1.16;75.35;100305.22;1426060;90;21909;-88
2023/02/04 11:19:03;;;;;;;4.28;2.12;;;;;;;1.17;74.81;100312.58;1434443;90;22767;-89
2023/02/04 11:21:35;;;;;;;11.53;2.10;;;;;;;1.27;74.96;100368.48;1441763;90;21593;-88
2023/02/04 11:24:15;;;;;;;2.23;1.53;;;;;;;1.10;74.72;100341.61;1445879;89;22243;-89
2023/02/04 11:26:51;;;;;;;2.53;1.70;;;;;;;1.13;75.61;100345.81;1438148;90;22189;-89
2023/02/04 11:29:36;;;;;;;4.37;1.87;;;;;;;1.00;74.71;100361.77;1438007;91;22153;-90
2023/02/04 11:32:28;;;;;;;3.13;1.77;;;;;;;1.00;74.71;100361.77;1434391;90;21843;-92
2023/02/04 11:35:12;;;;;;;3.03;1.67;;;;;;;0.71;74.39;100361.66;1440389;90;21920;-91